< < Back
Terminal Aerodrome Forecast


Current Version              Previous Versions:   1  2  3  4  5  6  7  8  9  

Terminal Aerodrome Forecast

866
FTUS44 KBMX 290500
TAFBHM
TAF
KBHM 290539Z 2906/3006 VRB03KT 4SM -RA BR OVC005
      TEMPO 2906/2907 SCT005 OVC040
     FM291200 34004KT 3SM BR OVC005
     FM291700 34005KT 6SM BR OVC008
     FM292000 33004KT P6SM OVC015=



Latest METAR

331
SAUS70 KWBC 291000 RRA
MTRBHM
METAR KBHM 290953Z 33011KT 10SM SCT004 OVC008 09/09 A3007 RMK AO2
RAE0855 SLP180 P0000 T00940089


USA.gov is the U.S. government's official web portal to all federal, state and local government web resources and services.